Time,TemperatureF,DewpointF,PressureIn,WindDirection,WindDirectionDegrees,WindSpeedMPH,WindSpeedGustMPH,Humidity,HourlyPrecipIn,Conditions,Clouds,dailyrainin,SolarRadiationWatts/m^2,SoftwareType,DateUTC
2013-02-03 00:01:00,33.0,30.0,-100.00,SW,225,3.0,4.0,90,0.00,,,0.00,1.000000,,2013-02-03 08:01:00,
2013-02-03 00:32:00,30.0,28.0,-100.00,SW,229,1.0,4.0,92,0.00,,,0.00,1.000000,,2013-02-03 08:32:00,
2013-02-03 00:42:00,30.0,28.0,-100.00,SW,229,1.0,4.0,92,0.00,,,0.00,1.000000,,2013-02-03 08:42:00,
2013-02-03 00:52:00,30.0,28.0,-100.00,SW,229,1.0,4.0,92,0.00,,,0.00,1.000000,,2013-02-03 08:52:00,
2013-02-03 01:02:00,30.0,28.0,-100.00,SW,229,1.0,4.0,92,0.00,,,0.00,1.000000,,2013-02-03 09:02:00,
2013-02-03 01:32:00,29.0,27.0,-100.00,NE,42,2.0,4.0,93,0.00,,,0.00,1.000000,,2013-02-03 09:32:00,
2013-02-03 01:42:00,29.0,27.0,-100.00,NE,42,2.0,4.0,93,0.00,,,0.00,1.000000,,2013-02-03 09:42:00,
2013-02-03 01:52:00,29.0,27.0,-100.00,NE,42,2.0,4.0,93,0.00,,,0.00,1.000000,,2013-02-03 09:52:00,
2013-02-03 02:01:00,29.0,27.0,-100.00,NE,42,2.0,4.0,93,0.00,,,0.00,1.000000,,2013-02-03 10:01:00,
2013-02-03 02:32:00,27.0,26.0,-100.00,SSW,209,3.0,5.0,95,0.00,,,0.00,1.000000,,2013-02-03 10:32:00,
2013-02-03 02:42:00,27.0,26.0,-100.00,SSW,209,3.0,5.0,95,0.00,,,0.00,1.000000,,2013-02-03 10:42:00,
2013-02-03 02:52:00,27.0,26.0,-100.00,SSW,209,3.0,5.0,95,0.00,,,0.00,1.000000,,2013-02-03 10:52:00,
2013-02-03 03:02:00,27.0,26.0,-100.00,SSW,209,3.0,5.0,95,0.00,,,0.00,1.000000,,2013-02-03 11:02:00,
2013-02-03 03:32:00,27.0,26.0,-100.00,SSW,213,2.0,5.0,94,0.00,,,0.00,1.000000,,2013-02-03 11:32:00,
2013-02-03 03:42:00,27.0,26.0,-100.00,SSW,213,2.0,5.0,94,0.00,,,0.00,1.000000,,2013-02-03 11:42:00,
2013-02-03 03:52:00,27.0,26.0,-100.00,SSW,213,2.0,5.0,94,0.00,,,0.00,1.000000,,2013-02-03 11:52:00,
2013-02-03 04:02:00,27.0,26.0,-100.00,SSW,213,2.0,5.0,94,0.00,,,0.00,1.000000,,2013-02-03 12:02:00,
2013-02-03 04:32:00,26.0,25.0,-100.00,NE,35,3.0,5.0,95,0.00,,,0.00,1.000000,,2013-02-03 12:32:00,
2013-02-03 04:42:00,26.0,25.0,-100.00,NE,35,3.0,5.0,95,0.00,,,0.00,1.000000,,2013-02-03 12:42:00,
2013-02-03 04:53:00,26.0,25.0,-100.00,NE,35,3.0,5.0,95,0.00,,,0.00,1.000000,,2013-02-03 12:53:00,
2013-02-03 05:03:00,26.0,25.0,-100.00,NE,35,3.0,5.0,95,0.00,,,0.00,1.000000,,2013-02-03 13:03:00,
2013-02-03 05:32:00,26.0,25.0,-100.00,South,174,0.0,4.0,96,0.00,,,0.00,1.000000,,2013-02-03 13:32:00,
2013-02-03 05:42:00,26.0,25.0,-100.00,South,174,0.0,4.0,96,0.00,,,0.00,1.000000,,2013-02-03 13:42:00,
2013-02-03 05:52:00,26.0,25.0,-100.00,South,174,0.0,4.0,96,0.00,,,0.00,1.000000,,2013-02-03 13:52:00,
2013-02-03 06:02:00,26.0,25.0,-100.00,South,174,0.0,4.0,96,0.00,,,0.00,1.000000,,2013-02-03 14:02:00,
2013-02-03 06:32:00,25.0,24.0,-100.00,NE,42,2.0,4.0,96,0.00,,,0.00,1.000000,,2013-02-03 14:32:00,
2013-02-03 06:42:00,25.0,24.0,-100.00,NE,42,2.0,4.0,96,0.00,,,0.00,1.000000,,2013-02-03 14:42:00,
2013-02-03 06:52:00,25.0,24.0,-100.00,NE,42,2.0,4.0,96,0.00,,,0.00,1.000000,,2013-02-03 14:52:00,
2013-02-03 07:02:00,25.0,24.0,-100.00,NE,42,2.0,4.0,96,0.00,,,0.00,1.000000,,2013-02-03 15:02:00,
2013-02-03 07:33:00,23.0,22.0,-100.00,SSW,210,2.0,3.0,95,0.00,,,0.00,1.000000,,2013-02-03 15:33:00,
2013-02-03 07:42:00,23.0,22.0,-100.00,SSW,210,2.0,3.0,95,0.00,,,0.00,1.000000,,2013-02-03 15:42:00,
2013-02-03 07:52:00,23.0,22.0,-100.00,SSW,210,2.0,3.0,95,0.00,,,0.00,1.000000,,2013-02-03 15:52:00,
2013-02-03 08:02:00,23.0,22.0,-100.00,SSW,210,2.0,3.0,95,0.00,,,0.00,1.000000,,2013-02-03 16:02:00,
2013-02-03 08:33:00,24.0,23.0,-100.00,SW,234,2.0,3.0,95,0.00,,,0.00,12.000000,,2013-02-03 16:33:00,
2013-02-03 08:42:00,24.0,23.0,-100.00,SW,234,2.0,3.0,95,0.00,,,0.00,12.000000,,2013-02-03 16:42:00,
2013-02-03 08:52:00,24.0,23.0,-100.00,SW,234,2.0,3.0,95,0.00,,,0.00,12.000000,,2013-02-03 16:52:00,
2013-02-03 09:02:00,24.0,23.0,-100.00,SW,234,2.0,3.0,95,0.00,,,0.00,12.000000,,2013-02-03 17:02:00,
2013-02-03 09:32:00,31.0,29.0,-100.00,SE,125,3.0,4.0,91,0.00,,,0.00,149.000000,,2013-02-03 17:32:00,
2013-02-03 09:42:00,31.0,29.0,-100.00,SE,125,3.0,4.0,91,0.00,,,0.00,149.000000,,2013-02-03 17:42:00,
2013-02-03 09:52:00,31.0,29.0,-100.00,SE,125,3.0,4.0,91,0.00,,,0.00,149.000000,,2013-02-03 17:52:00,
2013-02-03 10:02:00,31.0,29.0,-100.00,SE,125,3.0,4.0,91,0.00,,,0.00,149.000000,,2013-02-03 18:02:00,
2013-02-03 10:33:00,37.0,32.0,-100.00,NE,52,3.0,4.0,82,0.00,,,0.00,320.000000,,2013-02-03 18:33:00,
2013-02-03 10:42:00,37.0,32.0,-100.00,NE,52,3.0,4.0,82,0.00,,,0.00,320.000000,,2013-02-03 18:42:00,
2013-02-03 10:52:00,37.0,32.0,-100.00,NE,52,3.0,4.0,82,0.00,,,0.00,320.000000,,2013-02-03 18:52:00,
2013-02-03 11:02:00,37.0,32.0,-100.00,NE,52,3.0,4.0,82,0.00,,,0.00,320.000000,,2013-02-03 19:02:00,
2013-02-03 11:32:00,44.0,35.0,-100.00,SE,126,2.0,4.0,71,0.00,,,0.00,406.000000,,2013-02-03 19:32:00,
2013-02-03 11:42:00,44.0,35.0,-100.00,SE,126,2.0,4.0,71,0.00,,,0.00,406.000000,,2013-02-03 19:42:00,
2013-02-03 11:52:00,44.0,35.0,-100.00,SE,126,2.0,4.0,71,0.00,,,0.00,406.000000,,2013-02-03 19:52:00,
2013-02-03 12:01:00,44.0,35.0,-100.00,SE,126,2.0,4.0,71,0.00,,,0.00,406.000000,,2013-02-03 20:01:00,
2013-02-03 12:33:00,47.0,34.0,-100.00,NE,56,3.0,5.0,61,0.00,,,0.00,460.000000,,2013-02-03 20:33:00,
2013-02-03 12:42:00,47.0,34.0,-100.00,NE,56,3.0,5.0,61,0.00,,,0.00,460.000000,,2013-02-03 20:42:00,
2013-02-03 12:52:00,47.0,34.0,-100.00,NE,56,3.0,5.0,61,0.00,,,0.00,460.000000,,2013-02-03 20:52:00,
2013-02-03 13:02:00,47.0,34.0,-100.00,NE,56,3.0,5.0,61,0.00,,,0.00,460.000000,,2013-02-03 21:02:00,
2013-02-03 13:33:00,51.0,36.0,-100.00,WNW,298,2.0,4.0,56,0.00,,,0.00,367.000000,,2013-02-03 21:33:00,
2013-02-03 13:42:00,51.0,36.0,-100.00,WNW,298,2.0,4.0,56,0.00,,,0.00,367.000000,,2013-02-03 21:42:00,
2013-02-03 13:52:00,51.0,36.0,-100.00,WNW,298,2.0,4.0,56,0.00,,,0.00,367.000000,,2013-02-03 21:52:00,
2013-02-03 14:01:00,51.0,36.0,-100.00,WNW,298,2.0,4.0,56,0.00,,,0.00,367.000000,,2013-02-03 22:01:00,
2013-02-03 14:32:00,51.0,34.0,-100.00,NNE,31,3.0,5.0,53,0.00,,,0.00,293.000000,,2013-02-03 22:32:00,
2013-02-03 14:42:00,51.0,34.0,-100.00,NNE,31,3.0,5.0,53,0.00,,,0.00,293.000000,,2013-02-03 22:42:00,
2013-02-03 14:52:00,51.0,34.0,-100.00,NNE,31,3.0,5.0,53,0.00,,,0.00,293.000000,,2013-02-03 22:52:00,
2013-02-03 15:01:00,51.0,34.0,-100.00,NNE,31,3.0,5.0,53,0.00,,,0.00,293.000000,,2013-02-03 23:01:00,
2013-02-03 15:32:00,50.0,34.0,-100.00,WNW,299,3.0,5.0,54,0.00,,,0.00,181.000000,,2013-02-03 23:32:00,
2013-02-03 15:42:00,50.0,34.0,-100.00,WNW,299,3.0,5.0,54,0.00,,,0.00,181.000000,,2013-02-03 23:42:00,
2013-02-03 15:52:00,50.0,34.0,-100.00,WNW,299,3.0,5.0,54,0.00,,,0.00,181.000000,,2013-02-03 23:52:00,
2013-02-03 16:01:00,50.0,34.0,-100.00,WNW,299,3.0,5.0,54,0.00,,,0.00,181.000000,,2013-02-04 00:01:00,
2013-02-03 16:32:00,49.0,34.0,-100.00,SW,216,1.0,4.0,55,0.00,,,0.00,81.000000,,2013-02-04 00:32:00,
2013-02-03 16:42:00,49.0,34.0,-100.00,SW,216,1.0,4.0,55,0.00,,,0.00,81.000000,,2013-02-04 00:42:00,
2013-02-03 16:52:00,49.0,34.0,-100.00,SW,216,1.0,4.0,55,0.00,,,0.00,81.000000,,2013-02-04 00:52:00,
2013-02-03 17:01:00,49.0,34.0,-100.00,SW,216,1.0,4.0,55,0.00,,,0.00,81.000000,,2013-02-04 01:01:00,
2013-02-03 17:32:00,46.0,35.0,-100.00,SSW,204,2.0,5.0,64,0.00,,,0.00,26.000000,,2013-02-04 01:32:00,
2013-02-03 17:42:00,46.0,35.0,-100.00,SSW,204,2.0,5.0,64,0.00,,,0.00,26.000000,,2013-02-04 01:42:00,
2013-02-03 17:52:00,46.0,35.0,-100.00,SSW,204,2.0,5.0,64,0.00,,,0.00,26.000000,,2013-02-04 01:52:00,
2013-02-03 18:01:00,46.0,35.0,-100.00,SSW,204,2.0,5.0,64,0.00,,,0.00,26.000000,,2013-02-04 02:01:00,
2013-02-03 18:32:00,44.0,35.0,-100.00,NNE,31,1.0,4.0,70,0.00,,,0.00,1.000000,,2013-02-04 02:32:00,
2013-02-03 18:42:00,44.0,35.0,-100.00,NNE,31,1.0,4.0,70,0.00,,,0.00,1.000000,,2013-02-04 02:42:00,
2013-02-03 18:52:00,44.0,35.0,-100.00,NNE,31,1.0,4.0,70,0.00,,,0.00,1.000000,,2013-02-04 02:52:00,
2013-02-03 19:01:00,44.0,35.0,-100.00,NNE,31,1.0,4.0,70,0.00,,,0.00,1.000000,,2013-02-04 03:01:00,
2013-02-03 19:32:00,42.0,35.0,-100.00,SW,219,1.0,3.0,76,0.00,,,0.00,1.000000,,2013-02-04 03:32:00,
2013-02-03 19:42:00,42.0,35.0,-100.00,SW,219,1.0,3.0,76,0.00,,,0.00,1.000000,,2013-02-04 03:42:00,
2013-02-03 19:52:00,42.0,35.0,-100.00,SW,219,1.0,3.0,76,0.00,,,0.00,1.000000,,2013-02-04 03:52:00,
2013-02-03 20:01:00,42.0,35.0,-100.00,SW,219,1.0,3.0,76,0.00,,,0.00,1.000000,,2013-02-04 04:01:00,
2013-02-03 20:32:00,42.0,36.0,-100.00,WSW,239,3.0,4.0,80,0.00,,,0.00,1.000000,,2013-02-04 04:32:00,
2013-02-03 20:42:00,42.0,36.0,-100.00,WSW,239,3.0,4.0,80,0.00,,,0.00,1.000000,,2013-02-04 04:42:00,
2013-02-03 20:52:00,42.0,36.0,-100.00,WSW,239,3.0,4.0,80,0.00,,,0.00,1.000000,,2013-02-04 04:52:00,
2013-02-03 21:03:00,42.0,36.0,-100.00,WSW,239,3.0,4.0,80,0.00,,,0.00,1.000000,,2013-02-04 05:03:00,
2013-02-03 21:33:00,40.0,35.0,-100.00,NNE,31,2.0,4.0,81,0.00,,,0.00,1.000000,,2013-02-04 05:33:00,
2013-02-03 21:42:00,40.0,35.0,-100.00,NNE,31,2.0,4.0,81,0.00,,,0.00,1.000000,,2013-02-04 05:42:00,
2013-02-03 21:52:00,40.0,35.0,-100.00,NNE,31,2.0,4.0,81,0.00,,,0.00,1.000000,,2013-02-04 05:52:00,
2013-02-03 22:01:00,40.0,35.0,-100.00,NNE,31,2.0,4.0,81,0.00,,,0.00,1.000000,,2013-02-04 06:01:00,
2013-02-03 22:32:00,40.0,36.0,-100.00,SW,225,3.0,5.0,84,0.00,,,0.00,1.000000,,2013-02-04 06:32:00,
2013-02-03 22:42:00,40.0,36.0,-100.00,SW,225,3.0,5.0,84,0.00,,,0.00,1.000000,,2013-02-04 06:42:00,
2013-02-03 22:52:00,40.0,36.0,-100.00,SW,225,3.0,5.0,84,0.00,,,0.00,1.000000,,2013-02-04 06:52:00,
2013-02-03 23:01:00,40.0,36.0,-100.00,SW,225,3.0,5.0,84,0.00,,,0.00,1.000000,,2013-02-04 07:01:00,
2013-02-03 23:32:00,38.0,34.0,-100.00,NW,323,3.0,5.0,84,0.00,,,0.00,1.000000,,2013-02-04 07:32:00,
2013-02-03 23:42:00,38.0,34.0,-100.00,NW,323,3.0,5.0,84,0.00,,,0.00,1.000000,,2013-02-04 07:42:00,
2013-02-03 23:52:00,38.0,34.0,-100.00,NW,323,3.0,5.0,84,0.00,,,0.00,1.000000,,2013-02-04 07:52:00,